Time;durP1;ratioP1;P1;durP2;ratioP2;P2;SDS_P1;SDS_P2;PMS_P1;PMS_P2;Temp;Humidity;BMP_temperature;BMP_pressure;BME280_temperature;BME280_humidity;BME280_pressure;Samples;Min_cycle;Max_cycle;Signal;HPM_P1;HPM_P2
2023/12/28 06:55:59;;;;;;;3.63;1.60;;;;;;;;;;10431690;23;19921;-84
2023/12/28 07:01:00;;;;;;;3.75;1.63;;;;;;;;;;10396235;28;20041;-84
2023/12/28 07:06:01;;;;;;;4.57;1.60;;;;;;;;;;10361604;28;20037;-85
2023/12/28 07:11:03;;;;;;;4.10;1.60;;;;;;;;;;10372208;28;20084;-84
2023/12/28 07:16:04;;;;;;;3.83;1.70;;;;;;;;;;10352610;28;20481;-84
2023/12/28 07:21:11;;;;;;;4.15;1.63;;;;;;;;;;10400581;28;20059;-83
2023/12/28 07:26:12;;;;;;;5.60;2.00;;;;;;;;;;10389869;28;20026;-82
2023/12/28 07:31:22;;;;;;;4.05;1.73;;;;;;;;;;10388640;28;20034;-82
2023/12/28 07:36:24;;;;;;;5.15;1.65;;;;;;;;;;10393275;28;20081;-83
2023/12/28 07:41:25;;;;;;;5.78;1.80;;;;;;;;;;10387712;28;20034;-82
2023/12/28 07:46:27;;;;;;;3.08;1.83;;;;;;;;;;10401877;28;20002;-83
2023/12/28 07:51:28;;;;;;;4.38;1.80;;;;;;;;;;10391312;28;20018;-83
2023/12/28 07:56:29;;;;;;;7.00;1.50;;;;;;;;;;10349574;28;20043;-84
2023/12/28 08:01:30;;;;;;;5.25;1.95;;;;;;;;;;10346003;28;20037;-83
2023/12/28 08:06:32;;;;;;;4.15;1.33;;;;;;;;;;10343362;28;20424;-81
2023/12/28 08:11:33;;;;;;;4.40;1.58;;;;;;;;;;10340052;28;20026;-79
2023/12/28 08:16:35;;;;;;;5.13;1.55;;;;;;;;;;10321854;28;20088;-82
2023/12/28 08:21:36;;;;;;;4.60;1.73;;;;;;;;;;10322194;28;20031;-81
2023/12/28 08:26:37;;;;;;;6.65;1.90;;;;;;;;;;10322391;28;20030;-81
2023/12/28 08:31:38;;;;;;;4.80;1.70;;;;;;;;;;10323188;28;20432;-82
2023/12/28 08:36:39;;;;;;;;;;;;;;;;;;10323044;28;20031;-82
2023/12/28 08:41:40;;;;;;;5.10;1.25;;;;;;;;;;10341009;28;19909;-81
2023/12/28 08:46:41;;;;;;;4.13;2.00;;;;;;;;;;10334997;28;20038;-82
2023/12/28 08:51:42;;;;;;;5.80;1.70;;;;;;;;;;10334530;28;20030;-82
2023/12/28 08:56:43;;;;;;;5.18;1.70;;;;;;;;;;10323099;28;20030;-82
2023/12/28 09:01:44;;;;;;;;;;;;;;;;;;10323125;28;20034;-82
2023/12/28 09:06:45;;;;;;;5.55;2.35;;;;;;;;;;10320903;28;19912;-82
2023/12/28 09:11:46;;;;;;;5.50;2.00;;;;;;;;;;10321576;28;20133;-81
2023/12/28 09:16:47;;;;;;;;;;;;;;;;;;10338357;28;20023;-80
2023/12/28 09:21:49;;;;;;;6.32;1.92;;;;;;;;;;10319821;28;19906;-80
2023/12/28 09:26:50;;;;;;;5.05;1.92;;;;;;;;;;10319749;28;20038;-80
2023/12/28 09:31:51;;;;;;;5.25;1.70;;;;;;;;;;10322044;28;20129;-80
2023/12/28 09:36:52;;;;;;;4.90;1.48;;;;;;;;;;10337039;28;20026;-81
2023/12/28 09:42:01;;;;;;;6.55;1.73;;;;;;;;;;10319496;28;20149;-80
2023/12/28 09:47:04;;;;;;;6.35;2.03;;;;;;;;;;10320326;28;20413;-81
2023/12/28 09:52:06;;;;;;;5.05;1.70;;;;;;;;;;10319955;28;20066;-82
2023/12/28 09:57:07;;;;;;;5.75;1.80;;;;;;;;;;10320438;28;20038;-82
2023/12/28 10:02:08;;;;;;;6.00;2.10;;;;;;;;;;10321309;28;20034;-81
2023/12/28 10:07:09;;;;;;;7.03;2.03;;;;;;;;;;10321270;28;20038;-82
2023/12/28 10:12:10;;;;;;;4.90;1.67;;;;;;;;;;10323821;28;20058;-84
2023/12/28 10:17:11;;;;;;;;;;;;;;;;;;10324354;28;20030;-82
2023/12/28 10:22:14;;;;;;;6.20;1.92;;;;;;;;;;10323062;28;19912;-82
2023/12/28 10:27:15;;;;;;;5.35;1.95;;;;;;;;;;10322757;28;20094;-82
2023/12/28 10:32:16;;;;;;;3.78;1.65;;;;;;;;;;10344707;28;20073;-82
2023/12/28 10:37:17;;;;;;;;;;;;;;;;;;10335220;28;20183;-82
2023/12/28 10:42:24;;;;;;;8.43;1.88;;;;;;;;;;10319689;28;19958;-81
2023/12/28 10:47:26;;;;;;;5.93;1.70;;;;;;;;;;10320122;28;20039;-82
2023/12/28 10:52:28;;;;;;;6.88;1.90;;;;;;;;;;10321273;28;20056;-82
2023/12/28 10:57:37;;;;;;;9.20;2.33;;;;;;;;;;10321130;28;20037;-81
2023/12/28 11:02:41;;;;;;;7.85;3.30;;;;;;;;;;10319804;28;20030;-82
2023/12/28 11:07:42;;;;;;;7.30;2.33;;;;;;;;;;10321505;28;20029;-82
2023/12/28 11:12:44;;;;;;;9.18;2.20;;;;;;;;;;10320899;28;20030;-82
2023/12/28 11:17:45;;;;;;;6.60;2.28;;;;;;;;;;10339318;28;20022;-82
2023/12/28 11:22:46;;;;;;;3.92;1.88;;;;;;;;;;10321213;28;20121;-82
2023/12/28 11:27:47;;;;;;;;;;;;;;;;;;10342428;28;20061;-82
2023/12/28 11:32:48;;;;;;;7.80;2.25;;;;;;;;;;10328492;28;19916;-81
2023/12/28 11:37:52;;;;;;;4.95;1.88;;;;;;;;;;10327232;28;20034;-81
2023/12/28 11:42:53;;;;;;;7.65;2.15;;;;;;;;;;10324927;28;20454;-81
2023/12/28 11:48:01;;;;;;;5.32;1.92;;;;;;;;;;10361804;28;20046;-80
2023/12/28 11:53:16;;;;;;;6.00;2.17;;;;;;;;;;10330452;28;20141;-82
2023/12/28 11:58:36;;;;;;;11.45;5.18;;;;;;;;;;10337308;28;20034;-82
2023/12/28 12:03:38;;;;;;;;;;;;;;;;;;10322370;28;20026;-81
2023/12/28 12:08:39;;;;;;;5.47;1.92;;;;;;;;;;10326344;28;20401;-82
2023/12/28 12:13:40;;;;;;;6.20;2.60;;;;;;;;;;10326505;28;20053;-81
2023/12/28 12:18:41;;;;;;;;;;;;;;;;;;10324969;28;20088;-80
2023/12/28 12:23:43;;;;;;;6.78;1.90;;;;;;;;;;10324419;28;19959;-81
2023/12/28 12:28:44;;;;;;;5.90;2.00;;;;;;;;;;10325456;28;20508;-81
2023/12/28 12:33:45;;;;;;;6.90;1.63;;;;;;;;;;10324445;28;20054;-80
2023/12/28 12:38:47;;;;;;;;;;;;;;;;;;10344474;28;20042;-82
2023/12/28 12:43:48;;;;;;;5.50;1.60;;;;;;;;;;10330622;28;20384;-81
2023/12/28 12:48:56;;;;;;;2.83;1.50;;;;;;;;;;10328360;28;20034;-80
2023/12/28 12:54:21;;;;;;;10.55;2.40;;;;;;;;;;10358230;23;20034;-83
2023/12/28 12:59:30;;;;;;;5.95;2.08;;;;;;;;;;10379154;28;20041;-83
2023/12/28 13:04:34;;;;;;;3.72;1.60;;;;;;;;;;10361929;28;20067;-83
2023/12/28 13:10:05;;;;;;;5.85;2.17;;;;;;;;;;10361647;28;20026;-83
2023/12/28 13:15:35;;;;;;;4.30;2.50;;;;;;;;;;10377313;28;20038;-86
2023/12/28 13:20:58;;;;;;;7.03;2.30;;;;;;;;;;10362997;28;20128;-84
2023/12/28 13:26:01;;;;;;;5.53;2.00;;;;;;;;;;10363782;28;20064;-85
2023/12/28 13:31:14;;;;;;;4.07;1.63;;;;;;;;;;10365777;28;20114;-87
2023/12/28 13:36:28;;;;;;;5.70;2.00;;;;;;;;;;10377901;28;20032;-86
2023/12/28 13:41:42;;;;;;;3.95;1.60;;;;;;;;;;10381673;28;20030;-85
2023/12/28 13:46:49;;;;;;;5.10;2.05;;;;;;;;;;10362727;28;20445;-83
2023/12/28 13:51:59;;;;;;;3.42;1.50;;;;;;;;;;10379280;28;20109;-85
2023/12/28 13:57:28;;;;;;;5.55;1.88;;;;;;;;;;10362952;28;20033;-83
2023/12/28 14:02:52;;;;;;;7.35;1.80;;;;;;;;;;10360903;28;20105;-81
2023/12/28 14:08:03;;;;;;;5.60;1.98;;;;;;;;;;10391429;28;20037;-84
2023/12/28 14:13:07;;;;;;;5.35;1.73;;;;;;;;;;10362310;28;20083;-84
2023/12/28 14:18:08;;;;;;;4.03;1.33;;;;;;;;;;10362218;28;20121;-83
2023/12/28 14:23:10;;;;;;;3.70;1.85;;;;;;;;;;10359360;28;20037;-83
2023/12/28 14:28:12;;;;;;;4.57;1.70;;;;;;;;;;10363174;28;20034;-83
2023/12/28 14:33:16;;;;;;;7.88;2.03;;;;;;;;;;10377608;28;20018;-83
2023/12/28 14:38:20;;;;;;;5.03;1.90;;;;;;;;;;10346353;28;20050;-83
2023/12/28 14:43:25;;;;;;;5.35;1.65;;;;;;;;;;10362094;28;20079;-84
2023/12/28 14:48:29;;;;;;;6.45;1.90;;;;;;;;;;10378790;28;20030;-84
2023/12/28 14:53:35;;;;;;;5.93;2.20;;;;;;;;;;10343063;28;20053;-84
2023/12/28 14:58:50;;;;;;;5.53;2.45;;;;;;;;;;10371627;28;20054;-85
2023/12/28 15:03:53;;;;;;;6.25;2.10;;;;;;;;;;10377050;28;20042;-84
2023/12/28 15:08:58;;;;;;;5.43;2.08;;;;;;;;;;10390524;28;20030;-84
2023/12/28 15:13:59;;;;;;;3.85;1.48;;;;;;;;;;10368913;28;20425;-85
2023/12/28 15:19:09;;;;;;;6.88;1.90;;;;;;;;;;10367544;28;20049;-85
2023/12/28 15:24:24;;;;;;;5.07;2.13;;;;;;;;;;10375116;28;20148;-86
2023/12/28 15:35:06;;;;;;;5.85;2.40;;;;;;;;;;10390573;28;20030;-85
2023/12/28 15:40:13;;;;;;;5.53;1.60;;;;;;;;;;10368885;28;20033;-86
2023/12/28 15:45:36;;;;;;;3.22;1.50;;;;;;;;;;10370697;28;20439;-86
2023/12/28 15:50:47;;;;;;;5.55;1.88;;;;;;;;;;10389619;28;20450;-87
2023/12/28 15:56:31;;;;;;;5.40;1.80;;;;;;;;;;10381112;28;20151;-86
2023/12/28 16:30:35;;;;;;;5.05;1.70;;;;;;;;;;10393379;28;20043;-85
2023/12/28 16:41:50;;;;;;;3.53;1.27;;;;;;;;;;10326816;28;20034;-86
2023/12/28 16:47:55;;;;;;;7.10;1.77;;;;;;;;;;10344753;28;20034;-86
2023/12/28 16:53:34;;;;;;;4.90;1.80;;;;;;;;;;10289500;28;20399;-86
2023/12/28 16:59:15;;;;;;;6.72;2.05;;;;;;;;;;10317001;28;20027;-86
2023/12/28 17:16:01;;;;;;;5.03;1.50;;;;;;;;;;10130453;29;20037;-83
2023/12/28 17:21:13;;;;;;;5.22;1.75;;;;;;;;;;10201783;28;20043;-83
2023/12/28 17:26:27;;;;;;;6.10;1.63;;;;;;;;;;10361836;28;20041;-84
2023/12/28 17:31:29;;;;;;;5.90;2.88;;;;;;;;;;10364889;28;20038;-84
2023/12/28 17:36:36;;;;;;;5.22;1.70;;;;;;;;;;10383212;28;20454;-84
2023/12/28 17:41:38;;;;;;;5.82;1.85;;;;;;;;;;10364635;28;20021;-84
2023/12/28 17:46:58;;;;;;;9.38;4.70;;;;;;;;;;10364445;28;20030;-84
2023/12/28 17:52:09;;;;;;;4.50;1.73;;;;;;;;;;10362133;28;20030;-84
2023/12/28 17:57:10;;;;;;;15.48;7.40;;;;;;;;;;10363022;28;20151;-83
2023/12/28 18:02:15;;;;;;;3.65;1.80;;;;;;;;;;10374246;28;20155;-84
2023/12/28 18:07:16;;;;;;;8.00;1.95;;;;;;;;;;10357209;28;20036;-83
2023/12/28 18:12:17;;;;;;;4.35;1.73;;;;;;;;;;10365919;28;20070;-83
2023/12/28 18:17:19;;;;;;;6.30;2.00;;;;;;;;;;10360297;28;20426;-83
2023/12/28 18:22:20;;;;;;;;;;;;;;;;;;10384758;28;20068;-83
2023/12/28 18:27:21;;;;;;;6.45;1.80;;;;;;;;;;10373191;28;19909;-83
2023/12/28 18:32:22;;;;;;;6.50;2.20;;;;;;;;;;10354223;28;20133;-83
2023/12/28 18:37:23;;;;;;;;;;;;;;;;;;10373085;28;20029;-82
2023/12/28 18:42:25;;;;;;;10.30;4.60;;;;;;;;;;10356387;28;19912;-83
2023/12/28 18:47:30;;;;;;;4.40;1.70;;;;;;;;;;10360902;28;20129;-84
2023/12/28 18:53:03;;;;;;;8.75;4.43;;;;;;;;;;10384881;23;20041;-89
2023/12/28 18:58:14;;;;;;;5.43;1.77;;;;;;;;;;10383900;28;20046;-89
2023/12/28 19:03:16;;;;;;;4.50;1.60;;;;;;;;;;10363607;28;20079;-89
2023/12/28 19:14:11;;;;;;;3.10;1.52;;;;;;;;;;10392546;28;19920;-88
2023/12/28 19:24:46;;;;;;;5.85;1.60;;;;;;;;;;10388078;28;20038;-89
2023/12/28 19:29:50;;;;;;;7.68;2.10;;;;;;;;;;10376471;28;20113;-89
2023/12/28 19:35:04;;;;;;;4.28;1.60;;;;;;;;;;10374029;28;20037;-89
2023/12/28 19:40:05;;;;;;;6.72;1.90;;;;;;;;;;10358749;28;20083;-88
2023/12/28 19:51:29;;;;;;;3.65;1.55;;;;;;;;;;10383084;28;20038;-89
2023/12/28 19:57:00;;;;;;;5.35;1.65;;;;;;;;;;10385857;28;20557;-88
2023/12/28 20:02:31;;;;;;;4.07;1.48;;;;;;;;;;10369288;28;20041;-89
2023/12/28 20:08:10;;;;;;;6.63;2.38;;;;;;;;;;10359378;28;20041;-88
